Ashaiiu, Virginia
Current Conditions -  °F | °C
As of 6:54 AM on Tuesday 27 Jan 2015 (Local Time) from KOFP Reporting Station
Light Snow Light Snow  
Wind Chill: -5°   Ceiling: 5000
Heat Index: -2°   Visibility: 7mi
Dew Point: -4°   Wind: 5mph
Humidity: 82%   Direction: NA
Pressure: 29.79"   Gusts: NA
Location:  37.7534°N, 77.495°W
Report Text: KOFP 271154Z AUTO VRB04KT 7SM -SN OVC050 M02/M04 A2979 RMK AO2 SLP088 P0000 60000 70005 T10171044 11006 21017 53018
Loading
Personal Weather Stations






























Interactive Weather Map New forecast layout! Learn more

10-Day Weather Forecast

Advertisements
Track Severe Weather on mobile